createdAt,value
2023-03-02T00:01:21.370Z,128.50
2023-03-02T00:03:48.912Z,127.50
2023-03-02T00:06:16.496Z,112.80
2023-03-02T00:08:44.021Z,125.70
2023-03-02T00:11:11.619Z,97.40
2023-03-02T00:13:39.424Z,114.50
2023-03-02T00:16:07.098Z,130.20
2023-03-02T00:18:34.674Z,140.10
2023-03-02T00:21:02.137Z,123.20
2023-03-02T00:23:29.641Z,100.10
2023-03-02T00:25:57.137Z,111.10
2023-03-02T00:28:24.606Z,100.90
2023-03-02T00:30:52.151Z,103.20
2023-03-02T00:33:20.964Z,114.10
2023-03-02T00:35:48.483Z,114.20
2023-03-02T00:38:16.259Z,109.20
2023-03-02T00:40:43.704Z,102.60
2023-03-02T00:43:11.134Z,106.90
2023-03-02T00:45:38.634Z,102.40
2023-03-02T00:48:06.078Z,105.20
2023-03-02T00:50:33.640Z,98.50
2023-03-02T00:53:01.313Z,105.80
2023-03-02T00:55:28.777Z,113.00
2023-03-02T00:57:56.246Z,83.90
2023-03-02T01:00:23.772Z,89.20
2023-03-02T01:02:51.322Z,77.10
2023-03-02T01:05:18.960Z,79.30
2023-03-02T01:07:46.680Z,87.00
2023-03-02T01:10:14.317Z,80.00
2023-03-02T01:12:41.792Z,89.70
2023-03-02T01:15:09.464Z,88.90
2023-03-02T01:17:36.954Z,84.40
2023-03-02T01:20:05.571Z,77.70
2023-03-02T01:22:33.086Z,78.90
2023-03-02T01:25:00.559Z,101.10
2023-03-02T01:27:28.530Z,89.30
2023-03-02T01:29:56.054Z,139.10
2023-03-02T01:32:23.646Z,130.60
2023-03-02T01:34:51.621Z,140.10
2023-03-02T01:37:20.907Z,125.20
2023-03-02T01:39:48.703Z,114.80
2023-03-02T01:42:16.190Z,111.60
2023-03-02T01:44:43.712Z,94.10
2023-03-02T01:47:13.961Z,82.40
2023-03-02T01:49:41.563Z,82.50
2023-03-02T01:52:10.593Z,78.70
2023-03-02T01:54:38.032Z,77.10
2023-03-02T01:57:05.476Z,87.30
2023-03-02T01:59:33.025Z,88.40
2023-03-02T02:02:00.510Z,101.30
2023-03-02T02:04:27.977Z,99.00
2023-03-02T02:06:55.458Z,94.70
2023-03-02T02:09:22.965Z,85.50
2023-03-02T02:11:50.508Z,85.90
2023-03-02T02:14:18.127Z,93.60
2023-03-02T02:16:45.665Z,92.90
2023-03-02T02:19:13.236Z,94.10
2023-03-02T02:21:40.866Z,98.90
2023-03-02T02:24:08.322Z,99.40
2023-03-02T02:26:38.741Z,87.30
2023-03-02T02:29:08.047Z,100.70
2023-03-02T02:31:35.661Z,95.30
2023-03-02T02:34:03.185Z,95.20
2023-03-02T02:36:33.665Z,92.50
2023-03-02T02:39:01.431Z,90.60
2023-03-02T02:41:29.066Z,95.90
2023-03-02T02:43:56.596Z,89.50
2023-03-02T02:46:24.030Z,104.90
2023-03-02T02:48:51.542Z,111.20
2023-03-02T02:51:19.095Z,126.60
2023-03-02T02:53:46.525Z,102.00
2023-03-02T02:56:13.959Z,97.50
2023-03-02T02:58:41.584Z,103.40
2023-03-02T03:01:09.095Z,97.90
2023-03-02T03:03:36.602Z,79.00
2023-03-02T03:06:04.092Z,67.30
2023-03-02T03:08:31.588Z,96.30
2023-03-02T03:10:59.062Z,99.00
2023-03-02T03:13:26.691Z,89.80
2023-03-02T03:15:54.113Z,83.10
2023-03-02T03:18:21.810Z,81.90
2023-03-02T03:20:49.306Z,86.20
2023-03-02T03:23:16.756Z,79.80
2023-03-02T03:25:44.219Z,72.10
2023-03-02T03:28:11.812Z,78.30
2023-03-02T03:30:39.290Z,72.40
2023-03-02T03:33:06.776Z,55.90
2023-03-02T03:35:37.027Z,60.50
2023-03-02T03:38:04.530Z,60.30
2023-03-02T03:40:34.319Z,62.70
2023-03-02T03:43:02.199Z,66.70
2023-03-02T03:45:30.509Z,65.40
2023-03-02T03:47:58.091Z,69.80
2023-03-02T03:50:25.592Z,68.50
2023-03-02T03:52:53.030Z,70.20
2023-03-02T03:55:20.498Z,68.80
2023-03-02T03:57:48.132Z,69.20
2023-03-02T04:00:17.048Z,71.20
2023-03-02T04:02:44.866Z,79.20
2023-03-02T04:05:12.487Z,69.30
2023-03-02T04:07:40.005Z,76.20
2023-03-02T04:10:07.575Z,82.50
2023-03-02T04:12:35.079Z,71.60
2023-03-02T04:15:02.530Z,69.70
2023-03-02T04:17:30.020Z,61.10
2023-03-02T04:19:57.550Z,60.90
2023-03-02T04:22:24.990Z,61.90
2023-03-02T04:24:52.565Z,65.80
2023-03-02T04:27:20.313Z,57.20
2023-03-02T04:29:48.369Z,52.30
2023-03-02T04:32:15.930Z,53.80
2023-03-02T04:34:43.494Z,52.50
2023-03-02T04:37:11.045Z,50.20
2023-03-02T04:39:38.514Z,48.80
2023-03-02T04:42:06.037Z,42.60
2023-03-02T04:44:33.674Z,61.00
2023-03-02T04:47:01.228Z,73.90
2023-03-02T04:49:28.782Z,72.10
2023-03-02T04:51:56.244Z,67.50
2023-03-02T04:54:23.766Z,57.60
2023-03-02T04:56:51.821Z,56.20
2023-03-02T04:59:20.009Z,54.70
2023-03-02T05:01:47.627Z,60.30
2023-03-02T05:04:15.319Z,70.20
2023-03-02T05:06:42.820Z,76.70
2023-03-02T05:09:10.512Z,76.30
2023-03-02T05:11:38.002Z,67.70
2023-03-02T05:14:05.501Z,67.30
2023-03-02T05:16:33.307Z,61.10
2023-03-02T05:19:01.148Z,45.60
2023-03-02T05:21:28.636Z,52.50
2023-03-02T05:23:56.111Z,104.40
2023-03-02T05:26:23.626Z,98.70
2023-03-02T05:28:53.022Z,121.70
2023-03-02T05:31:21.534Z,111.20
2023-03-02T05:33:49.122Z,123.30
2023-03-02T05:36:18.996Z,120.20
2023-03-02T05:38:47.433Z,116.70
2023-03-02T05:41:15.038Z,118.30
2023-03-02T05:43:42.553Z,118.60
2023-03-02T05:46:10.135Z,115.20
2023-03-02T05:48:37.658Z,101.90
2023-03-02T05:51:05.187Z,87.40
2023-03-02T05:53:32.704Z,77.00
2023-03-02T05:56:00.299Z,69.50
2023-03-02T05:58:28.000Z,69.20
2023-03-02T06:00:55.454Z,70.70
2023-03-02T06:03:23.023Z,68.20
2023-03-02T06:05:50.880Z,64.60
2023-03-02T06:08:18.649Z,67.90
2023-03-02T06:10:46.221Z,74.40
2023-03-02T06:13:13.899Z,69.60
2023-03-02T06:15:43.127Z,79.40
2023-03-02T06:18:12.619Z,78.00
2023-03-02T06:20:40.569Z,90.40
2023-03-02T06:23:08.284Z,85.00
2023-03-02T06:25:37.022Z,81.50
2023-03-02T06:28:04.474Z,88.50
2023-03-02T06:30:31.936Z,66.30
2023-03-02T06:33:00.040Z,66.60
2023-03-02T06:35:28.970Z,72.90
2023-03-02T06:37:56.576Z,75.60
2023-03-02T06:40:24.141Z,80.50
2023-03-02T06:42:51.632Z,90.90
2023-03-02T06:45:19.165Z,71.90
2023-03-02T06:47:46.826Z,75.20
2023-03-02T06:50:14.251Z,73.40
2023-03-02T06:52:41.739Z,76.70
2023-03-02T06:55:09.299Z,73.90
2023-03-02T06:57:36.806Z,66.90
2023-03-02T07:00:09.482Z,74.30
2023-03-02T07:02:37.064Z,67.40
2023-03-02T07:05:04.594Z,67.10
2023-03-02T07:07:32.076Z,82.60
2023-03-02T07:09:59.618Z,95.10
2023-03-02T07:12:27.257Z,109.60
2023-03-02T07:14:54.721Z,117.10
2023-03-02T07:17:22.377Z,120.40
2023-03-02T07:19:49.867Z,133.90
2023-03-02T07:22:17.334Z,107.00
2023-03-02T07:24:45.124Z,101.70
2023-03-02T07:27:12.630Z,105.30
2023-03-02T07:29:40.097Z,86.40
2023-03-02T07:32:07.587Z,53.30
2023-03-02T07:34:35.053Z,78.80
2023-03-02T07:37:02.483Z,79.30
2023-03-02T07:39:30.037Z,95.20
2023-03-02T07:41:57.490Z,87.60
2023-03-02T07:44:24.983Z,76.10
2023-03-02T07:46:52.673Z,90.80
2023-03-02T07:49:20.451Z,61.20
2023-03-02T07:51:48.047Z,64.10
2023-03-02T07:54:15.622Z,74.00
2023-03-02T07:56:43.118Z,75.60
2023-03-02T07:59:10.672Z,75.10
2023-03-02T08:01:38.247Z,61.40
2023-03-02T08:04:05.844Z,69.90
2023-03-02T08:06:33.665Z,47.30
2023-03-02T08:09:01.446Z,46.00
2023-03-02T08:11:29.030Z,50.80
2023-03-02T08:13:56.690Z,62.60
2023-03-02T08:16:26.434Z,66.10
2023-03-02T08:18:54.120Z,65.80
2023-03-02T08:21:21.746Z,57.20
2023-03-02T08:23:49.485Z,60.30
2023-03-02T08:26:17.645Z,59.00
2023-03-02T08:28:45.366Z,62.50
2023-03-02T08:31:12.953Z,58.40
2023-03-02T08:33:40.499Z,68.50
2023-03-02T08:36:08.047Z,66.20
2023-03-02T08:38:35.769Z,67.80
2023-03-02T08:41:03.255Z,58.80
2023-03-02T08:43:30.739Z,57.90
2023-03-02T08:45:58.288Z,57.30
2023-03-02T08:48:26.352Z,63.00
2023-03-02T08:50:54.006Z,56.80
2023-03-02T08:53:21.571Z,46.70
2023-03-02T08:55:49.047Z,64.80
2023-03-02T08:58:16.540Z,70.00
2023-03-02T09:00:44.162Z,66.10
2023-03-02T09:03:11.834Z,72.00
2023-03-02T09:05:39.438Z,38.90
2023-03-02T09:08:07.149Z,58.10
2023-03-02T09:10:34.719Z,67.30
2023-03-02T09:13:02.359Z,55.40
2023-03-02T09:15:29.903Z,37.70
2023-03-02T09:17:57.414Z,57.70
2023-03-02T09:20:24.886Z,35.50
2023-03-02T09:22:52.542Z,34.60
2023-03-02T09:25:20.022Z,45.40
2023-03-02T09:27:47.529Z,50.60
2023-03-02T09:30:15.312Z,62.40
2023-03-02T09:32:42.929Z,62.70
2023-03-02T09:35:10.521Z,59.90
2023-03-02T09:37:39.028Z,66.40
2023-03-02T09:40:06.625Z,70.30
2023-03-02T09:42:43.629Z,61.30
2023-03-02T09:45:11.889Z,59.70
2023-03-02T09:47:39.775Z,49.90
2023-03-02T09:50:07.259Z,48.00
2023-03-02T09:52:35.203Z,49.10
2023-03-02T09:55:02.697Z,43.90
2023-03-02T09:57:30.211Z,43.90
2023-03-02T10:00:03.775Z,34.30
2023-03-02T10:02:34.197Z,40.20
2023-03-02T10:05:02.283Z,37.90
2023-03-02T10:07:29.847Z,46.00
2023-03-02T10:09:57.605Z,37.10
2023-03-02T10:12:25.197Z,43.70
2023-03-02T10:14:52.721Z,36.60
2023-03-02T10:17:20.213Z,36.60
2023-03-02T10:19:47.807Z,33.60
2023-03-02T10:22:15.281Z,33.60
2023-03-02T10:24:43.063Z,34.80
2023-03-02T10:27:10.750Z,30.60
2023-03-02T10:29:38.238Z,42.30
2023-03-02T10:32:05.814Z,31.20
2023-03-02T10:34:33.656Z,36.40
2023-03-02T10:37:01.158Z,49.70
2023-03-02T10:39:28.634Z,31.70
2023-03-02T10:41:56.252Z,32.00
2023-03-02T10:44:23.817Z,30.70
2023-03-02T10:46:53.773Z,30.80
2023-03-02T10:49:21.434Z,28.80
2023-03-02T10:51:48.980Z,24.90
2023-03-02T10:54:17.035Z,14.10
2023-03-02T10:56:44.672Z,11.30
2023-03-02T10:59:12.225Z,11.90
2023-03-02T11:01:39.764Z,9.80
2023-03-02T11:04:07.368Z,8.50
2023-03-02T11:06:35.984Z,11.00
2023-03-02T11:09:03.507Z,7.40
2023-03-02T11:11:31.710Z,7.60
2023-03-02T11:13:59.550Z,8.40
2023-03-02T11:16:28.498Z,6.30
2023-03-02T11:18:56.178Z,7.50
2023-03-02T11:21:23.721Z,8.20
2023-03-02T11:23:51.326Z,10.90
2023-03-02T11:26:19.441Z,5.90
2023-03-02T11:28:47.039Z,5.50
2023-03-02T11:31:14.658Z,5.20
2023-03-02T11:33:42.318Z,4.00
2023-03-02T11:36:09.825Z,4.90
2023-03-02T11:38:37.370Z,6.20
2023-03-02T11:41:04.999Z,8.90
2023-03-02T11:43:32.827Z,6.10
2023-03-02T11:46:00.287Z,7.80
2023-03-02T11:48:27.841Z,7.00
2023-03-02T11:50:55.305Z,6.00
2023-03-02T11:53:22.874Z,5.90
2023-03-02T11:55:50.765Z,5.90
2023-03-02T11:58:18.493Z,7.50
2023-03-02T12:00:46.000Z,7.30
2023-03-02T12:03:13.531Z,8.60
2023-03-02T12:05:41.318Z,7.10
2023-03-02T12:08:08.920Z,6.10
2023-03-02T12:10:36.409Z,5.70
2023-03-02T12:13:04.013Z,4.10
2023-03-02T12:15:31.536Z,6.50
2023-03-02T12:17:59.157Z,6.80
2023-03-02T12:20:27.040Z,6.50
2023-03-02T12:22:54.553Z,6.70
2023-03-02T12:25:22.069Z,5.00
2023-03-02T12:27:49.673Z,5.20
2023-03-02T12:30:23.439Z,4.60
2023-03-02T12:32:51.013Z,6.50
2023-03-02T12:35:18.546Z,5.50
2023-03-02T12:37:46.126Z,5.50
2023-03-02T12:40:13.589Z,5.80
2023-03-02T12:42:41.070Z,5.30
2023-03-02T12:45:08.706Z,5.60
2023-03-02T12:47:36.190Z,4.80
2023-03-02T12:50:03.684Z,3.80
2023-03-02T12:52:31.275Z,5.40
2023-03-02T12:54:59.079Z,4.00
2023-03-02T12:57:26.717Z,4.90
2023-03-02T12:59:54.556Z,3.90
2023-03-02T13:02:22.092Z,5.00
2023-03-02T13:04:49.911Z,5.60
2023-03-02T13:07:17.422Z,5.00
2023-03-02T13:09:55.598Z,4.20
2023-03-02T13:12:24.023Z,4.50
2023-03-02T13:14:51.501Z,4.40
2023-03-02T13:17:19.018Z,6.10
2023-03-02T13:19:46.796Z,5.60
2023-03-02T13:22:15.080Z,5.10
2023-03-02T13:24:42.616Z,5.40
2023-03-02T13:27:10.143Z,5.40
2023-03-02T13:29:37.752Z,5.10
2023-03-02T13:32:05.235Z,4.80
2023-03-02T13:34:32.775Z,5.10
2023-03-02T13:37:00.353Z,5.50
2023-03-02T13:39:27.823Z,45.10
2023-03-02T13:41:55.407Z,27.60
2023-03-02T13:44:24.662Z,7.20
2023-03-02T13:46:52.173Z,7.30
2023-03-02T13:49:19.740Z,7.80
2023-03-02T13:51:47.353Z,7.10
2023-03-02T13:54:14.844Z,5.70
2023-03-02T13:56:43.901Z,5.80
2023-03-02T13:59:11.591Z,6.60
2023-03-02T14:01:39.139Z,5.70
2023-03-02T14:04:06.679Z,6.60
2023-03-02T14:06:34.616Z,3.70
2023-03-02T14:09:02.273Z,6.10
2023-03-02T14:11:30.080Z,8.90
2023-03-02T14:13:58.192Z,9.70
2023-03-02T14:16:26.582Z,18.20
2023-03-02T14:18:56.157Z,16.40
2023-03-02T14:21:23.749Z,13.20
2023-03-02T14:23:52.587Z,12.10
2023-03-02T14:26:20.192Z,12.90
2023-03-02T14:28:53.597Z,12.50
2023-03-02T14:31:27.694Z,15.90
2023-03-02T14:33:55.323Z,13.40
2023-03-02T14:36:22.893Z,12.50
2023-03-02T14:38:50.512Z,11.30
2023-03-02T14:41:18.055Z,14.00
2023-03-02T14:43:45.744Z,15.20
2023-03-02T14:46:13.420Z,13.40
2023-03-02T14:48:41.142Z,21.80
2023-03-02T14:51:08.701Z,14.70
2023-03-02T14:53:36.396Z,12.50
2023-03-02T14:56:04.128Z,12.90
2023-03-02T14:58:31.757Z,14.00
2023-03-02T15:00:59.587Z,21.20
2023-03-02T15:03:27.374Z,16.40
2023-03-02T15:06:01.407Z,16.00
2023-03-02T15:08:29.502Z,13.60
2023-03-02T15:10:57.123Z,14.00
2023-03-02T15:13:25.030Z,14.50
2023-03-02T15:15:53.030Z,13.50
2023-03-02T15:18:20.695Z,9.70
2023-03-02T15:20:48.242Z,8.60
2023-03-02T15:23:15.817Z,8.30
2023-03-02T15:25:43.397Z,9.50
2023-03-02T15:28:11.027Z,12.30
2023-03-02T15:30:39.096Z,10.40
2023-03-02T15:33:06.685Z,10.70
2023-03-02T15:35:34.278Z,13.20
2023-03-02T15:38:04.596Z,13.20
2023-03-02T15:40:33.758Z,14.00
2023-03-02T15:43:01.385Z,13.70
2023-03-02T15:45:29.102Z,13.60
2023-03-02T15:47:57.038Z,12.50
2023-03-02T15:50:25.250Z,13.50
2023-03-02T15:52:53.211Z,10.60
2023-03-02T15:55:20.831Z,15.40
2023-03-02T15:57:48.437Z,17.30
2023-03-02T16:00:19.102Z,13.60
2023-03-02T16:02:47.767Z,12.50
2023-03-02T16:05:17.451Z,17.40
2023-03-02T16:07:45.299Z,17.10
2023-03-02T16:10:16.511Z,18.40
2023-03-02T16:12:44.080Z,18.90
2023-03-02T16:15:13.097Z,16.80
2023-03-02T16:17:40.627Z,16.00
2023-03-02T16:20:08.430Z,16.80
2023-03-02T16:22:36.082Z,17.50
2023-03-02T16:25:03.538Z,26.40
2023-03-02T16:27:30.992Z,23.70
2023-03-02T16:29:58.810Z,29.40
2023-03-02T16:32:26.382Z,26.80
2023-03-02T16:34:53.899Z,22.70
2023-03-02T16:37:21.573Z,23.90
2023-03-02T16:39:49.111Z,30.60
2023-03-02T16:42:18.472Z,19.00
2023-03-02T16:44:46.016Z,17.40
2023-03-02T16:47:13.485Z,17.50
2023-03-02T16:49:40.952Z,17.50
2023-03-02T16:52:08.540Z,20.50
2023-03-02T16:54:36.004Z,21.10
2023-03-02T16:57:03.546Z,18.60
2023-03-02T16:59:31.068Z,20.30
2023-03-02T17:01:58.759Z,20.40
2023-03-02T17:04:26.443Z,19.90
2023-03-02T17:07:01.666Z,20.60
2023-03-02T17:09:29.485Z,22.60
2023-03-02T17:11:57.026Z,25.90
2023-03-02T17:14:24.572Z,22.40
2023-03-02T17:16:52.026Z,25.30
2023-03-02T17:19:19.688Z,26.70
2023-03-02T17:21:47.190Z,35.10
2023-03-02T17:24:14.675Z,35.50
2023-03-02T17:26:42.201Z,28.50
2023-03-02T17:29:09.697Z,31.70
2023-03-02T17:31:37.199Z,21.60
2023-03-02T17:34:04.753Z,27.20
2023-03-02T17:36:32.256Z,21.40
2023-03-02T17:38:59.697Z,22.90
2023-03-02T17:41:27.434Z,19.70
2023-03-02T17:43:54.917Z,21.70
2023-03-02T17:46:23.227Z,23.90
2023-03-02T17:48:53.709Z,32.70
2023-03-02T17:51:22.186Z,38.10
2023-03-02T17:53:49.750Z,34.10
2023-03-02T17:56:18.934Z,40.20
2023-03-02T17:58:46.371Z,39.60
2023-03-02T18:01:13.977Z,40.20
2023-03-02T18:03:41.700Z,45.80
2023-03-02T18:06:09.455Z,42.00
2023-03-02T18:08:37.237Z,46.80
2023-03-02T18:11:04.940Z,56.80
2023-03-02T18:13:32.504Z,62.80
2023-03-02T18:16:00.111Z,69.60
2023-03-02T18:18:27.687Z,71.80
2023-03-02T18:20:55.146Z,65.30
2023-03-02T18:23:22.699Z,71.80
2023-03-02T18:25:50.245Z,75.40
2023-03-02T18:28:18.578Z,75.60
2023-03-02T18:30:46.035Z,113.90
2023-03-02T18:33:13.581Z,184.00
2023-03-02T18:35:41.058Z,152.20
2023-03-02T18:38:08.504Z,108.10
2023-03-02T18:40:36.243Z,104.30
2023-03-02T18:43:03.801Z,81.30
2023-03-02T18:45:31.375Z,82.90
2023-03-02T18:47:59.075Z,68.20
2023-03-02T18:50:26.796Z,67.30
2023-03-02T18:52:54.350Z,69.10
2023-03-02T18:55:22.013Z,66.40
2023-03-02T18:57:49.450Z,78.20
2023-03-02T19:00:16.989Z,80.30
2023-03-02T19:02:44.469Z,97.00
2023-03-02T19:05:12.125Z,115.10
2023-03-02T19:07:39.693Z,137.80
2023-03-02T19:10:07.526Z,139.20
2023-03-02T19:12:35.506Z,139.00
2023-03-02T19:15:03.003Z,132.30
2023-03-02T19:17:30.517Z,141.70
2023-03-02T19:19:57.999Z,161.50
2023-03-02T19:22:25.485Z,156.70
2023-03-02T19:24:53.898Z,159.50
2023-03-02T19:27:21.511Z,152.60
2023-03-02T19:29:48.985Z,150.90
2023-03-02T19:32:16.611Z,140.30
2023-03-02T19:34:44.359Z,145.50
2023-03-02T19:37:11.948Z,154.60
2023-03-02T19:39:39.638Z,144.10
2023-03-02T19:42:07.109Z,152.80
2023-03-02T19:44:34.570Z,155.40
2023-03-02T19:47:02.390Z,164.70
2023-03-02T19:49:29.901Z,158.80
2023-03-02T19:51:59.101Z,169.30
2023-03-02T19:54:26.615Z,150.20
2023-03-02T19:56:54.209Z,136.50
2023-03-02T19:59:22.084Z,125.10
2023-03-02T20:01:51.291Z,130.80
2023-03-02T20:04:18.897Z,136.80
2023-03-02T20:06:46.438Z,137.60
2023-03-02T20:09:19.471Z,139.40
2023-03-02T20:11:47.149Z,134.40
2023-03-02T20:14:31.432Z,146.30
2023-03-02T20:17:01.346Z,139.90
2023-03-02T20:19:29.013Z,141.80
2023-03-02T20:21:56.721Z,163.60
2023-03-02T20:24:24.483Z,154.00
2023-03-02T20:26:52.005Z,207.70
2023-03-02T20:29:20.170Z,176.20
2023-03-02T20:31:47.906Z,148.00
2023-03-02T20:34:16.602Z,146.30
2023-03-02T20:36:44.898Z,143.00
2023-03-02T20:39:12.442Z,126.50
2023-03-02T20:41:40.244Z,116.50
2023-03-02T20:44:07.726Z,128.80
2023-03-02T20:46:35.497Z,122.70
2023-03-02T20:49:03.054Z,107.20
2023-03-02T20:51:30.518Z,108.40
2023-03-02T20:53:58.024Z,106.10
2023-03-02T20:56:25.563Z,122.10
2023-03-02T20:58:53.235Z,122.90
2023-03-02T21:01:20.957Z,109.10
2023-03-02T21:03:48.508Z,110.20
2023-03-02T21:06:15.969Z,103.10
2023-03-02T21:08:43.590Z,112.40
2023-03-02T21:11:11.246Z,107.20
2023-03-02T21:13:39.237Z,102.20
2023-03-02T21:16:07.282Z,108.80
2023-03-02T21:18:34.851Z,119.10
2023-03-02T21:21:02.275Z,114.90
2023-03-02T21:23:29.991Z,123.40
2023-03-02T21:25:57.449Z,131.60
2023-03-02T21:28:24.896Z,124.40
2023-03-02T21:30:52.632Z,118.80
2023-03-02T21:33:20.343Z,131.30
2023-03-02T21:35:47.842Z,129.30
2023-03-02T21:38:15.337Z,143.90
2023-03-02T21:40:45.898Z,148.50
2023-03-02T21:43:13.542Z,156.60
2023-03-02T21:45:41.031Z,150.70
2023-03-02T21:48:08.475Z,119.60
2023-03-02T21:50:35.901Z,121.60
2023-03-02T21:53:03.431Z,126.30
2023-03-02T21:55:30.928Z,121.60
2023-03-02T21:57:58.469Z,106.50
2023-03-02T22:00:26.038Z,93.40
2023-03-02T22:02:53.529Z,95.60
2023-03-02T22:05:21.031Z,114.60
2023-03-02T22:07:48.673Z,116.40
2023-03-02T22:10:16.241Z,118.10
2023-03-02T22:12:44.536Z,121.00
2023-03-02T22:15:12.101Z,106.30
2023-03-02T22:17:39.594Z,125.00
2023-03-02T22:20:07.130Z,114.40
2023-03-02T22:22:34.754Z,117.30
2023-03-02T22:25:02.221Z,109.10
2023-03-02T22:27:29.864Z,109.80
2023-03-02T22:29:59.092Z,116.80
2023-03-02T22:32:26.885Z,112.40
2023-03-02T22:34:54.483Z,124.60
2023-03-02T22:37:22.199Z,116.60
2023-03-02T22:39:50.124Z,119.00
2023-03-02T22:42:17.616Z,120.60
2023-03-02T22:44:45.073Z,103.40
2023-03-02T22:47:12.542Z,102.80
2023-03-02T22:49:40.004Z,106.10
2023-03-02T22:52:07.635Z,112.10
2023-03-02T22:54:35.083Z,111.90
2023-03-02T22:57:02.915Z,118.30
2023-03-02T22:59:30.397Z,95.00
2023-03-02T23:01:57.829Z,131.20
2023-03-02T23:04:25.315Z,124.00
2023-03-02T23:06:52.968Z,123.60
2023-03-02T23:09:21.649Z,129.40
2023-03-02T23:11:49.478Z,137.90
2023-03-02T23:14:17.296Z,146.70
2023-03-02T23:16:44.767Z,147.80
2023-03-02T23:19:12.385Z,144.70
2023-03-02T23:21:40.393Z,153.30
2023-03-02T23:24:07.885Z,136.10
2023-03-02T23:26:35.337Z,127.90
2023-03-02T23:29:02.817Z,114.80
2023-03-02T23:31:30.265Z,98.60
2023-03-02T23:33:57.751Z,83.40
2023-03-02T23:36:26.296Z,84.10
2023-03-02T23:38:54.097Z,80.50
2023-03-02T23:41:21.934Z,90.50
2023-03-02T23:43:49.505Z,86.90
2023-03-02T23:46:17.230Z,83.00
2023-03-02T23:48:44.805Z,82.90
2023-03-02T23:51:12.753Z,88.40
2023-03-02T23:53:40.189Z,89.20
2023-03-02T23:56:07.746Z,83.60
2023-03-02T23:58:35.562Z,87.50
